Terminal Aerodrome Forecast
Issued by NWS

Home | Current Version | Previous Version | Text Only | Print | Product List | Glossary On
Versions: 1 2 3 4 5 6 7 8 9 10 11 12 13 14 15 16 17 18 19 20 21 22 23 24 25 26 27 28 29 30 31 32 33 34 35 36
000
FTAK31 PAFA 300540
TAFAQT
TAF
PAQT 300540Z 3006/3106 12012KT P6SM SCT025 BKN050 BKN080
     FM300900 06008KT 6SM BR OVC015
     FM301300 04010KT 2SM BR BKN008 OVC015
     FM302000 04010KT P6SM BKN018=

USA.gov is the U.S. government's official web portal to all federal, state and local government web resources and services.